Triplett, Missouri
Current Conditions -  °F | °C
As of 9:15 PM on Tuesday 25 Nov 2014 (Local Time) from KMHL Reporting Station
Clear Clear  
Wind Chill: -1°   Ceiling: Unl
Heat Index:   Visibility: 10mi
Dew Point: -6°   Wind: 5mph
Humidity: 60%   Direction: 140°SE
Pressure: 30.12"   Gusts: NA
Location:  39.5°N, 93.19°W
Report Text: KMHL 260315Z AUTO 14004KT 10SM CLR 01/M06 A3012 RMK AO2
Loading
Personal Weather Stations






























Interactive Weather Map New forecast layout! Learn more

10-Day Weather Forecast

Advertisements
Track Severe Weather on mobile